Valhalla, New York
Current Conditions -  °F | °C
As of 6:56 AM on Friday 28 Nov 2014 (Local Time) from KHPN Reporting Station
Few Clouds Few Clouds  
Wind Chill: 20°   Ceiling: Unl
Heat Index: 29°   Visibility: 10mi
Dew Point: 22°   Wind: 9mph
Humidity: 75%   Direction: 320°NW
Pressure: 30.09"   Gusts: NA
Location:  41.08°N, 73.77°W
Report Text: KHPN 281156Z 32008KT 10SM FEW060 M02/M06 A3009 RMK AO2 SLP198 T10171056 11006 21017 53017
Loading
Personal Weather Stations






























Interactive Weather Map New forecast layout! Learn more

10-Day Weather Forecast

Advertisements
Track Severe Weather on mobile